sensor_id;sensor_type;location;lat;lon;timestamp;temperature;humidity
32698;DHT22;19087;51.062;3.754;2022-07-30T00:01:12;17.60;99.90
32698;DHT22;19087;51.062;3.754;2022-07-30T00:03:37;17.70;99.90
32698;DHT22;19087;51.062;3.754;2022-07-30T00:06:04;17.70;99.90
32698;DHT22;19087;51.062;3.754;2022-07-30T00:08:31;17.50;99.90
32698;DHT22;19087;51.062;3.754;2022-07-30T00:10:58;17.40;99.90
32698;DHT22;19087;51.062;3.754;2022-07-30T00:13:23;17.50;99.90
32698;DHT22;19087;51.062;3.754;2022-07-30T00:15:49;17.50;99.90
32698;DHT22;19087;51.062;3.754;2022-07-30T00:18:16;17.50;99.90
32698;DHT22;19087;51.062;3.754;2022-07-30T00:20:43;17.60;99.90
32698;DHT22;19087;51.062;3.754;2022-07-30T00:23:10;17.60;99.90
32698;DHT22;19087;51.062;3.754;2022-07-30T00:25:36;17.50;99.90
32698;DHT22;19087;51.062;3.754;2022-07-30T00:28:02;17.50;99.90
32698;DHT22;19087;51.062;3.754;2022-07-30T00:30:27;17.70;99.90
32698;DHT22;19087;51.062;3.754;2022-07-30T00:32:54;17.60;99.90
32698;DHT22;19087;51.062;3.754;2022-07-30T00:35:20;17.70;99.90
32698;DHT22;19087;51.062;3.754;2022-07-30T00:37:45;17.60;99.90
32698;DHT22;19087;51.062;3.754;2022-07-30T00:40:11;17.50;99.90
32698;DHT22;19087;51.062;3.754;2022-07-30T00:42:46;17.50;99.90
32698;DHT22;19087;51.062;3.754;2022-07-30T00:45:13;17.50;99.90
32698;DHT22;19087;51.062;3.754;2022-07-30T00:47:39;17.50;99.90
32698;DHT22;19087;51.062;3.754;2022-07-30T00:50:09;17.60;99.90
32698;DHT22;19087;51.062;3.754;2022-07-30T00:52:37;17.60;99.90
32698;DHT22;19087;51.062;3.754;2022-07-30T00:55:03;17.60;99.90
32698;DHT22;19087;51.062;3.754;2022-07-30T00:57:29;17.70;99.90
32698;DHT22;19087;51.062;3.754;2022-07-30T00:59:57;17.70;99.90
32698;DHT22;19087;51.062;3.754;2022-07-30T01:02:25;17.70;99.90
32698;DHT22;19087;51.062;3.754;2022-07-30T01:04:51;17.60;99.90
32698;DHT22;19087;51.062;3.754;2022-07-30T01:07:17;17.70;99.90
32698;DHT22;19087;51.062;3.754;2022-07-30T01:09:44;17.60;99.90
32698;DHT22;19087;51.062;3.754;2022-07-30T01:12:11;17.50;99.90
32698;DHT22;19087;51.062;3.754;2022-07-30T01:14:39;17.40;99.90
32698;DHT22;19087;51.062;3.754;2022-07-30T01:17:05;17.30;99.90
32698;DHT22;19087;51.062;3.754;2022-07-30T01:19:38;17.40;99.90
32698;DHT22;19087;51.062;3.754;2022-07-30T01:27:24;17.20;99.90
32698;DHT22;19087;51.062;3.754;2022-07-30T01:29:51;17.20;99.90
32698;DHT22;19087;51.062;3.754;2022-07-30T01:32:22;17.10;99.90
32698;DHT22;19087;51.062;3.754;2022-07-30T01:34:50;17.00;99.90
32698;DHT22;19087;51.062;3.754;2022-07-30T01:37:20;17.10;99.90
32698;DHT22;19087;51.062;3.754;2022-07-30T01:39:48;17.10;99.90
32698;DHT22;19087;51.062;3.754;2022-07-30T01:42:16;17.20;99.90
32698;DHT22;19087;51.062;3.754;2022-07-30T01:44:44;17.20;99.90
32698;DHT22;19087;51.062;3.754;2022-07-30T01:47:13;17.20;99.90
32698;DHT22;19087;51.062;3.754;2022-07-30T01:49:41;17.10;99.90
32698;DHT22;19087;51.062;3.754;2022-07-30T01:52:09;17.10;99.90
32698;DHT22;19087;51.062;3.754;2022-07-30T01:54:36;17.00;99.90
32698;DHT22;19087;51.062;3.754;2022-07-30T01:57:04;17.00;99.90
32698;DHT22;19087;51.062;3.754;2022-07-30T01:59:33;17.00;99.90
32698;DHT22;19087;51.062;3.754;2022-07-30T02:02:00;17.10;99.90
32698;DHT22;19087;51.062;3.754;2022-07-30T02:04:26;17.10;99.90
32698;DHT22;19087;51.062;3.754;2022-07-30T02:06:58;17.00;99.90
32698;DHT22;19087;51.062;3.754;2022-07-30T02:09:29;17.00;99.90
32698;DHT22;19087;51.062;3.754;2022-07-30T02:11:57;17.10;99.90
32698;DHT22;19087;51.062;3.754;2022-07-30T02:14:53;17.00;99.90
32698;DHT22;19087;51.062;3.754;2022-07-30T02:17:28;16.90;99.90
32698;DHT22;19087;51.062;3.754;2022-07-30T02:19:55;16.90;99.90
32698;DHT22;19087;51.062;3.754;2022-07-30T02:22:24;16.80;99.90
32698;DHT22;19087;51.062;3.754;2022-07-30T02:24:51;16.80;99.90
32698;DHT22;19087;51.062;3.754;2022-07-30T02:27:26;16.80;99.90
32698;DHT22;19087;51.062;3.754;2022-07-30T02:29:56;16.70;99.90
32698;DHT22;19087;51.062;3.754;2022-07-30T02:32:23;16.90;99.90
32698;DHT22;19087;51.062;3.754;2022-07-30T02:34:55;17.00;99.90
32698;DHT22;19087;51.062;3.754;2022-07-30T02:37:22;16.90;99.90
32698;DHT22;19087;51.062;3.754;2022-07-30T02:39:50;16.90;99.90
32698;DHT22;19087;51.062;3.754;2022-07-30T02:42:18;16.80;99.90
32698;DHT22;19087;51.062;3.754;2022-07-30T02:44:44;16.70;99.90
32698;DHT22;19087;51.062;3.754;2022-07-30T02:47:14;16.70;99.90
32698;DHT22;19087;51.062;3.754;2022-07-30T02:49:41;16.80;99.90
32698;DHT22;19087;51.062;3.754;2022-07-30T02:52:11;16.70;99.90
32698;DHT22;19087;51.062;3.754;2022-07-30T02:54:39;16.60;99.90
32698;DHT22;19087;51.062;3.754;2022-07-30T02:57:07;16.70;99.90
32698;DHT22;19087;51.062;3.754;2022-07-30T02:59:35;16.80;99.90
32698;DHT22;19087;51.062;3.754;2022-07-30T03:02:03;16.90;99.90
32698;DHT22;19087;51.062;3.754;2022-07-30T03:04:30;16.80;99.90
32698;DHT22;19087;51.062;3.754;2022-07-30T03:06:58;16.80;99.90
32698;DHT22;19087;51.062;3.754;2022-07-30T03:09:25;16.70;99.90
32698;DHT22;19087;51.062;3.754;2022-07-30T03:11:51;16.70;99.90
32698;DHT22;19087;51.062;3.754;2022-07-30T03:14:18;16.70;99.90
32698;DHT22;19087;51.062;3.754;2022-07-30T03:16:50;16.70;99.90
32698;DHT22;19087;51.062;3.754;2022-07-30T03:19:20;16.70;99.90
32698;DHT22;19087;51.062;3.754;2022-07-30T03:21:47;16.70;99.90
32698;DHT22;19087;51.062;3.754;2022-07-30T03:24:15;16.80;99.90
32698;DHT22;19087;51.062;3.754;2022-07-30T03:26:43;16.80;99.90
32698;DHT22;19087;51.062;3.754;2022-07-30T03:29:11;16.70;99.90
32698;DHT22;19087;51.062;3.754;2022-07-30T03:31:39;16.60;99.90
32698;DHT22;19087;51.062;3.754;2022-07-30T03:34:06;16.60;99.90
32698;DHT22;19087;51.062;3.754;2022-07-30T03:36:34;16.60;99.90
32698;DHT22;19087;51.062;3.754;2022-07-30T03:39:02;16.50;99.90
32698;DHT22;19087;51.062;3.754;2022-07-30T03:41:28;16.60;99.90
32698;DHT22;19087;51.062;3.754;2022-07-30T03:43:55;16.80;99.90
32698;DHT22;19087;51.062;3.754;2022-07-30T03:46:21;16.90;99.90
32698;DHT22;19087;51.062;3.754;2022-07-30T03:48:47;17.00;99.90
32698;DHT22;19087;51.062;3.754;2022-07-30T03:51:16;17.10;99.90
32698;DHT22;19087;51.062;3.754;2022-07-30T03:53:44;17.10;99.90
32698;DHT22;19087;51.062;3.754;2022-07-30T03:56:13;17.10;99.90
32698;DHT22;19087;51.062;3.754;2022-07-30T03:58:39;17.20;99.90
32698;DHT22;19087;51.062;3.754;2022-07-30T04:01:05;17.20;99.90
32698;DHT22;19087;51.062;3.754;2022-07-30T04:03:32;17.30;99.90
32698;DHT22;19087;51.062;3.754;2022-07-30T04:05:58;17.30;99.90
32698;DHT22;19087;51.062;3.754;2022-07-30T04:08:24;17.30;99.90
32698;DHT22;19087;51.062;3.754;2022-07-30T04:10:50;17.20;99.90
32698;DHT22;19087;51.062;3.754;2022-07-30T04:13:16;17.10;99.90
32698;DHT22;19087;51.062;3.754;2022-07-30T04:16:13;17.10;99.90
32698;DHT22;19087;51.062;3.754;2022-07-30T04:18:43;17.10;99.90
32698;DHT22;19087;51.062;3.754;2022-07-30T04:21:14;17.10;99.90
32698;DHT22;19087;51.062;3.754;2022-07-30T04:23:39;16.90;99.90
32698;DHT22;19087;51.062;3.754;2022-07-30T04:26:06;16.80;99.90
32698;DHT22;19087;51.062;3.754;2022-07-30T04:28:33;16.90;99.90
32698;DHT22;19087;51.062;3.754;2022-07-30T04:30:59;16.90;99.90
32698;DHT22;19087;51.062;3.754;2022-07-30T04:33:25;16.90;99.90
32698;DHT22;19087;51.062;3.754;2022-07-30T04:35:52;16.90;99.90
32698;DHT22;19087;51.062;3.754;2022-07-30T04:38:19;17.10;99.90
32698;DHT22;19087;51.062;3.754;2022-07-30T04:40:45;17.20;99.90
32698;DHT22;19087;51.062;3.754;2022-07-30T04:43:13;17.20;99.90
32698;DHT22;19087;51.062;3.754;2022-07-30T04:45:41;17.20;99.90
32698;DHT22;19087;51.062;3.754;2022-07-30T04:48:07;17.20;99.90
32698;DHT22;19087;51.062;3.754;2022-07-30T04:50:35;17.10;99.90
32698;DHT22;19087;51.062;3.754;2022-07-30T04:53:03;17.00;99.90
32698;DHT22;19087;51.062;3.754;2022-07-30T04:55:30;17.10;99.90
32698;DHT22;19087;51.062;3.754;2022-07-30T04:57:58;17.00;99.90
32698;DHT22;19087;51.062;3.754;2022-07-30T05:00:25;17.00;99.90
32698;DHT22;19087;51.062;3.754;2022-07-30T05:02:53;17.10;99.90
32698;DHT22;19087;51.062;3.754;2022-07-30T05:05:21;17.00;99.90
32698;DHT22;19087;51.062;3.754;2022-07-30T05:07:48;16.80;99.90
32698;DHT22;19087;51.062;3.754;2022-07-30T05:10:14;16.80;99.90
32698;DHT22;19087;51.062;3.754;2022-07-30T05:12:39;16.90;99.90
32698;DHT22;19087;51.062;3.754;2022-07-30T05:15:07;17.00;99.90
32698;DHT22;19087;51.062;3.754;2022-07-30T05:17:34;17.00;99.90
32698;DHT22;19087;51.062;3.754;2022-07-30T05:20:00;17.10;99.90
32698;DHT22;19087;51.062;3.754;2022-07-30T05:22:25;17.30;99.90
32698;DHT22;19087;51.062;3.754;2022-07-30T05:24:55;17.30;99.90
32698;DHT22;19087;51.062;3.754;2022-07-30T05:27:21;17.40;99.90
32698;DHT22;19087;51.062;3.754;2022-07-30T05:29:46;17.40;99.90
32698;DHT22;19087;51.062;3.754;2022-07-30T05:32:12;17.50;99.90
32698;DHT22;19087;51.062;3.754;2022-07-30T05:34:38;17.50;99.90
32698;DHT22;19087;51.062;3.754;2022-07-30T05:37:04;17.50;99.90
32698;DHT22;19087;51.062;3.754;2022-07-30T05:39:30;17.50;99.90
32698;DHT22;19087;51.062;3.754;2022-07-30T05:41:56;17.50;99.90
32698;DHT22;19087;51.062;3.754;2022-07-30T05:44:22;17.60;99.90
32698;DHT22;19087;51.062;3.754;2022-07-30T05:46:49;17.60;99.90
32698;DHT22;19087;51.062;3.754;2022-07-30T05:49:16;17.70;99.90
32698;DHT22;19087;51.062;3.754;2022-07-30T05:51:42;17.80;99.90
32698;DHT22;19087;51.062;3.754;2022-07-30T05:54:08;17.90;99.90
32698;DHT22;19087;51.062;3.754;2022-07-30T05:56:34;18.00;99.90
32698;DHT22;19087;51.062;3.754;2022-07-30T05:59:01;18.10;99.90
32698;DHT22;19087;51.062;3.754;2022-07-30T06:01:26;18.30;99.90
32698;DHT22;19087;51.062;3.754;2022-07-30T06:03:52;18.50;99.90
32698;DHT22;19087;51.062;3.754;2022-07-30T06:06:18;18.60;99.90
32698;DHT22;19087;51.062;3.754;2022-07-30T06:08:44;18.70;99.90
32698;DHT22;19087;51.062;3.754;2022-07-30T06:11:10;18.90;99.90
32698;DHT22;19087;51.062;3.754;2022-07-30T06:13:36;19.00;99.90
32698;DHT22;19087;51.062;3.754;2022-07-30T06:16:03;19.20;99.90
32698;DHT22;19087;51.062;3.754;2022-07-30T06:18:28;19.30;99.90
32698;DHT22;19087;51.062;3.754;2022-07-30T06:20:54;19.50;99.90
32698;DHT22;19087;51.062;3.754;2022-07-30T06:23:22;20.40;99.90
32698;DHT22;19087;51.062;3.754;2022-07-30T06:25:49;21.80;99.90
32698;DHT22;19087;51.062;3.754;2022-07-30T06:28:16;23.00;99.90
32698;DHT22;19087;51.062;3.754;2022-07-30T06:30:42;24.60;97.60
32698;DHT22;19087;51.062;3.754;2022-07-30T06:33:11;26.30;94.00
32698;DHT22;19087;51.062;3.754;2022-07-30T06:35:36;27.60;91.40
32698;DHT22;19087;51.062;3.754;2022-07-30T06:38:02;28.90;87.60
32698;DHT22;19087;51.062;3.754;2022-07-30T06:40:28;30.10;82.90
32698;DHT22;19087;51.062;3.754;2022-07-30T06:42:53;31.20;78.90
32698;DHT22;19087;51.062;3.754;2022-07-30T06:45:19;31.90;75.70
32698;DHT22;19087;51.062;3.754;2022-07-30T06:47:45;32.60;73.90
32698;DHT22;19087;51.062;3.754;2022-07-30T06:50:10;33.40;70.60
32698;DHT22;19087;51.062;3.754;2022-07-30T06:52:37;33.90;69.00
32698;DHT22;19087;51.062;3.754;2022-07-30T06:55:03;34.40;67.10
32698;DHT22;19087;51.062;3.754;2022-07-30T06:57:29;34.60;65.80
32698;DHT22;19087;51.062;3.754;2022-07-30T06:59:55;34.10;65.50
32698;DHT22;19087;51.062;3.754;2022-07-30T07:02:21;34.80;65.00
32698;DHT22;19087;51.062;3.754;2022-07-30T07:04:47;35.40;63.90
32698;DHT22;19087;51.062;3.754;2022-07-30T07:07:13;35.40;62.50
32698;DHT22;19087;51.062;3.754;2022-07-30T07:09:39;35.90;62.00
32698;DHT22;19087;51.062;3.754;2022-07-30T07:12:05;36.60;60.10
32698;DHT22;19087;51.062;3.754;2022-07-30T07:14:32;36.90;59.30
32698;DHT22;19087;51.062;3.754;2022-07-30T07:17:00;37.20;59.30
32698;DHT22;19087;51.062;3.754;2022-07-30T07:19:26;37.30;58.30
32698;DHT22;19087;51.062;3.754;2022-07-30T07:21:53;37.70;57.50
32698;DHT22;19087;51.062;3.754;2022-07-30T07:24:19;38.10;54.90
32698;DHT22;19087;51.062;3.754;2022-07-30T07:26:44;38.50;53.80
32698;DHT22;19087;51.062;3.754;2022-07-30T07:29:10;38.90;53.80
32698;DHT22;19087;51.062;3.754;2022-07-30T07:31:36;38.80;53.10
32698;DHT22;19087;51.062;3.754;2022-07-30T07:34:02;38.70;53.00
32698;DHT22;19087;51.062;3.754;2022-07-30T07:36:28;38.40;53.70
32698;DHT22;19087;51.062;3.754;2022-07-30T07:38:53;38.20;53.60
32698;DHT22;19087;51.062;3.754;2022-07-30T07:41:19;38.30;52.90
32698;DHT22;19087;51.062;3.754;2022-07-30T07:43:45;38.60;52.40
32698;DHT22;19087;51.062;3.754;2022-07-30T07:46:11;38.90;52.10
32698;DHT22;19087;51.062;3.754;2022-07-30T07:48:41;38.10;52.10
32698;DHT22;19087;51.062;3.754;2022-07-30T07:51:07;38.00;52.20
32698;DHT22;19087;51.062;3.754;2022-07-30T07:53:32;37.70;51.20
32698;DHT22;19087;51.062;3.754;2022-07-30T07:55:58;37.10;50.90
32698;DHT22;19087;51.062;3.754;2022-07-30T07:58:24;36.30;51.40
32698;DHT22;19087;51.062;3.754;2022-07-30T08:00:50;36.10;51.70
32698;DHT22;19087;51.062;3.754;2022-07-30T08:03:15;34.80;54.40
32698;DHT22;19087;51.062;3.754;2022-07-30T08:05:41;34.00;55.70
32698;DHT22;19087;51.062;3.754;2022-07-30T08:08:08;33.80;56.40
32698;DHT22;19087;51.062;3.754;2022-07-30T08:10:33;34.00;56.10
32698;DHT22;19087;51.062;3.754;2022-07-30T08:12:59;34.50;55.60
32698;DHT22;19087;51.062;3.754;2022-07-30T08:15:27;33.40;57.70
32698;DHT22;19087;51.062;3.754;2022-07-30T08:17:53;33.70;57.60
32698;DHT22;19087;51.062;3.754;2022-07-30T08:20:20;33.60;57.00
32698;DHT22;19087;51.062;3.754;2022-07-30T08:22:47;33.10;58.00
32698;DHT22;19087;51.062;3.754;2022-07-30T08:25:12;33.00;58.60
32698;DHT22;19087;51.062;3.754;2022-07-30T08:27:38;33.30;58.20
32698;DHT22;19087;51.062;3.754;2022-07-30T08:30:05;34.00;56.70
32698;DHT22;19087;51.062;3.754;2022-07-30T08:32:31;34.20;54.90
32698;DHT22;19087;51.062;3.754;2022-07-30T08:35:02;33.20;55.10
32698;DHT22;19087;51.062;3.754;2022-07-30T08:37:29;34.20;54.50
32698;DHT22;19087;51.062;3.754;2022-07-30T08:39:55;34.80;53.40
32698;DHT22;19087;51.062;3.754;2022-07-30T08:42:22;35.40;52.70
32698;DHT22;19087;51.062;3.754;2022-07-30T08:44:49;34.70;53.00
32698;DHT22;19087;51.062;3.754;2022-07-30T08:47:17;34.70;54.10
32698;DHT22;19087;51.062;3.754;2022-07-30T08:49:45;34.60;53.30
32698;DHT22;19087;51.062;3.754;2022-07-30T08:52:12;34.90;53.70
32698;DHT22;19087;51.062;3.754;2022-07-30T08:54:38;35.00;51.20
32698;DHT22;19087;51.062;3.754;2022-07-30T08:57:05;35.80;50.50
32698;DHT22;19087;51.062;3.754;2022-07-30T08:59:32;35.90;49.60
32698;DHT22;19087;51.062;3.754;2022-07-30T09:01:58;36.40;51.30
32698;DHT22;19087;51.062;3.754;2022-07-30T09:04:24;35.10;52.20
32698;DHT22;19087;51.062;3.754;2022-07-30T09:06:50;33.90;52.70
32698;DHT22;19087;51.062;3.754;2022-07-30T09:09:16;33.70;53.50
32698;DHT22;19087;51.062;3.754;2022-07-30T09:11:41;33.60;53.90
32698;DHT22;19087;51.062;3.754;2022-07-30T09:14:13;33.50;53.90
32698;DHT22;19087;51.062;3.754;2022-07-30T09:16:40;32.80;54.70
32698;DHT22;19087;51.062;3.754;2022-07-30T09:19:18;32.90;54.40
32698;DHT22;19087;51.062;3.754;2022-07-30T09:24:20;32.40;55.20
32698;DHT22;19087;51.062;3.754;2022-07-30T09:29:23;31.00;56.70
32698;DHT22;19087;51.062;3.754;2022-07-30T09:34:29;31.00;56.70
32698;DHT22;19087;51.062;3.754;2022-07-30T09:37:01;30.50;57.10
32698;DHT22;19087;51.062;3.754;2022-07-30T09:39:37;30.80;56.60
32698;DHT22;19087;51.062;3.754;2022-07-30T09:42:23;30.20;57.20
32698;DHT22;19087;51.062;3.754;2022-07-30T09:45:11;30.50;57.40
32698;DHT22;19087;51.062;3.754;2022-07-30T09:47:43;30.80;57.00
32698;DHT22;19087;51.062;3.754;2022-07-30T09:50:14;30.90;57.10
32698;DHT22;19087;51.062;3.754;2022-07-30T09:52:42;30.50;57.70
32698;DHT22;19087;51.062;3.754;2022-07-30T09:55:09;30.50;57.70
32698;DHT22;19087;51.062;3.754;2022-07-30T09:58:03;30.80;57.40
32698;DHT22;19087;51.062;3.754;2022-07-30T10:00:30;30.90;57.30
32698;DHT22;19087;51.062;3.754;2022-07-30T10:02:57;31.00;57.50
32698;DHT22;19087;51.062;3.754;2022-07-30T10:05:26;30.50;58.00
32698;DHT22;19087;51.062;3.754;2022-07-30T10:07:53;30.70;57.60
32698;DHT22;19087;51.062;3.754;2022-07-30T10:10:21;30.80;57.60
32698;DHT22;19087;51.062;3.754;2022-07-30T10:12:50;31.00;57.40
32698;DHT22;19087;51.062;3.754;2022-07-30T10:15:19;31.10;57.10
32698;DHT22;19087;51.062;3.754;2022-07-30T10:17:46;30.60;57.60
32698;DHT22;19087;51.062;3.754;2022-07-30T10:20:14;30.60;57.60
32698;DHT22;19087;51.062;3.754;2022-07-30T10:22:41;30.40;57.50
32698;DHT22;19087;51.062;3.754;2022-07-30T10:25:07;30.50;57.20
32698;DHT22;19087;51.062;3.754;2022-07-30T10:27:34;30.50;57.50
32698;DHT22;19087;51.062;3.754;2022-07-30T10:30:00;30.70;57.40
32698;DHT22;19087;51.062;3.754;2022-07-30T10:32:28;30.90;57.00
32698;DHT22;19087;51.062;3.754;2022-07-30T10:34:55;30.10;57.70
32698;DHT22;19087;51.062;3.754;2022-07-30T10:37:21;30.50;57.30
32698;DHT22;19087;51.062;3.754;2022-07-30T10:40:04;30.70;56.90
32698;DHT22;19087;51.062;3.754;2022-07-30T10:45:18;30.70;55.90
32698;DHT22;19087;51.062;3.754;2022-07-30T10:47:48;30.70;56.00
32698;DHT22;19087;51.062;3.754;2022-07-30T10:50:16;30.50;56.80
32698;DHT22;19087;51.062;3.754;2022-07-30T10:52:53;30.00;57.80
32698;DHT22;19087;51.062;3.754;2022-07-30T10:55:25;29.60;58.90
32698;DHT22;19087;51.062;3.754;2022-07-30T10:58:09;29.00;59.40
32698;DHT22;19087;51.062;3.754;2022-07-30T11:03:28;29.80;58.70
32698;DHT22;19087;51.062;3.754;2022-07-30T11:08:43;30.20;58.10
32698;DHT22;19087;51.062;3.754;2022-07-30T11:13:58;29.40;59.80
32698;DHT22;19087;51.062;3.754;2022-07-30T11:19:17;28.90;59.70
32698;DHT22;19087;51.062;3.754;2022-07-30T11:21:45;29.30;58.90
32698;DHT22;19087;51.062;3.754;2022-07-30T11:24:41;29.80;58.40
32698;DHT22;19087;51.062;3.754;2022-07-30T11:27:07;30.10;58.70
32698;DHT22;19087;51.062;3.754;2022-07-30T11:29:34;30.10;57.70
32698;DHT22;19087;51.062;3.754;2022-07-30T11:32:25;30.20;57.40
32698;DHT22;19087;51.062;3.754;2022-07-30T11:35:14;30.30;57.10
32698;DHT22;19087;51.062;3.754;2022-07-30T11:37:57;30.00;57.40
32698;DHT22;19087;51.062;3.754;2022-07-30T11:40:24;30.10;57.50
32698;DHT22;19087;51.062;3.754;2022-07-30T11:42:51;29.40;58.10
32698;DHT22;19087;51.062;3.754;2022-07-30T11:45:36;28.80;59.10
32698;DHT22;19087;51.062;3.754;2022-07-30T11:48:08;28.70;59.80
32698;DHT22;19087;51.062;3.754;2022-07-30T11:50:35;29.20;59.40
32698;DHT22;19087;51.062;3.754;2022-07-30T11:53:09;29.30;59.60
32698;DHT22;19087;51.062;3.754;2022-07-30T11:55:41;29.50;59.30
32698;DHT22;19087;51.062;3.754;2022-07-30T11:58:31;29.30;59.30
32698;DHT22;19087;51.062;3.754;2022-07-30T12:03:29;29.70;59.10
32698;DHT22;19087;51.062;3.754;2022-07-30T12:06:06;29.50;59.10
32698;DHT22;19087;51.062;3.754;2022-07-30T12:08:42;29.80;59.10
32698;DHT22;19087;51.062;3.754;2022-07-30T12:11:10;30.50;58.60
32698;DHT22;19087;51.062;3.754;2022-07-30T12:13:37;30.30;57.80
32698;DHT22;19087;51.062;3.754;2022-07-30T12:16:07;30.40;57.50
32698;DHT22;19087;51.062;3.754;2022-07-30T12:18:34;31.00;57.00
32698;DHT22;19087;51.062;3.754;2022-07-30T12:21:02;31.70;55.80
32698;DHT22;19087;51.062;3.754;2022-07-30T12:23:29;31.70;55.90
32698;DHT22;19087;51.062;3.754;2022-07-30T12:25:55;31.40;55.00
32698;DHT22;19087;51.062;3.754;2022-07-30T12:28:24;31.10;56.20
32698;DHT22;19087;51.062;3.754;2022-07-30T12:30:51;31.60;55.20
32698;DHT22;19087;51.062;3.754;2022-07-30T12:33:18;31.50;54.50
32698;DHT22;19087;51.062;3.754;2022-07-30T12:35:56;32.00;54.10
32698;DHT22;19087;51.062;3.754;2022-07-30T12:38:25;32.50;54.10
32698;DHT22;19087;51.062;3.754;2022-07-30T12:41:01;32.40;53.50
32698;DHT22;19087;51.062;3.754;2022-07-30T12:43:50;32.30;53.40
32698;DHT22;19087;51.062;3.754;2022-07-30T12:46:20;32.30;53.70
32698;DHT22;19087;51.062;3.754;2022-07-30T12:48:57;32.20;54.40
32698;DHT22;19087;51.062;3.754;2022-07-30T12:51:27;32.40;54.00
32698;DHT22;19087;51.062;3.754;2022-07-30T12:53:55;32.80;53.50
32698;DHT22;19087;51.062;3.754;2022-07-30T12:56:29;32.50;52.90
32698;DHT22;19087;51.062;3.754;2022-07-30T12:58:57;32.20;52.10
32698;DHT22;19087;51.062;3.754;2022-07-30T13:01:43;31.00;53.80
32698;DHT22;19087;51.062;3.754;2022-07-30T13:04:10;31.00;54.40
32698;DHT22;19087;51.062;3.754;2022-07-30T13:06:37;30.60;54.00
32698;DHT22;19087;51.062;3.754;2022-07-30T13:09:05;30.20;55.10
32698;DHT22;19087;51.062;3.754;2022-07-30T13:11:39;30.30;55.80
32698;DHT22;19087;51.062;3.754;2022-07-30T13:14:07;30.60;55.50
32698;DHT22;19087;51.062;3.754;2022-07-30T13:16:34;30.70;55.00
32698;DHT22;19087;51.062;3.754;2022-07-30T13:19:02;31.20;53.70
32698;DHT22;19087;51.062;3.754;2022-07-30T13:21:27;31.10;54.10
32698;DHT22;19087;51.062;3.754;2022-07-30T13:23:53;30.80;54.10
32698;DHT22;19087;51.062;3.754;2022-07-30T13:26:19;31.00;54.30
32698;DHT22;19087;51.062;3.754;2022-07-30T13:28:45;31.40;53.80
32698;DHT22;19087;51.062;3.754;2022-07-30T13:31:13;31.10;54.00
32698;DHT22;19087;51.062;3.754;2022-07-30T13:33:40;30.90;54.10
32698;DHT22;19087;51.062;3.754;2022-07-30T13:36:06;30.70;54.60
32698;DHT22;19087;51.062;3.754;2022-07-30T13:38:34;30.90;55.20
32698;DHT22;19087;51.062;3.754;2022-07-30T13:41:03;31.30;54.80
32698;DHT22;19087;51.062;3.754;2022-07-30T13:43:29;31.70;53.10
32698;DHT22;19087;51.062;3.754;2022-07-30T13:45:55;31.90;53.10
32698;DHT22;19087;51.062;3.754;2022-07-30T13:48:21;31.50;54.10
32698;DHT22;19087;51.062;3.754;2022-07-30T13:50:48;31.40;55.00
32698;DHT22;19087;51.062;3.754;2022-07-30T13:53:14;31.50;55.00
32698;DHT22;19087;51.062;3.754;2022-07-30T13:55:40;31.40;54.20
32698;DHT22;19087;51.062;3.754;2022-07-30T13:58:08;31.80;53.60
32698;DHT22;19087;51.062;3.754;2022-07-30T14:00:34;31.80;52.90
32698;DHT22;19087;51.062;3.754;2022-07-30T14:03:06;31.90;52.80
32698;DHT22;19087;51.062;3.754;2022-07-30T14:05:34;32.20;53.10
32698;DHT22;19087;51.062;3.754;2022-07-30T14:08:01;31.50;53.70
32698;DHT22;19087;51.062;3.754;2022-07-30T14:10:27;30.90;54.30
32698;DHT22;19087;51.062;3.754;2022-07-30T14:12:54;30.70;55.60
32698;DHT22;19087;51.062;3.754;2022-07-30T14:15:23;30.20;55.60
32698;DHT22;19087;51.062;3.754;2022-07-30T14:17:50;30.30;55.80
32698;DHT22;19087;51.062;3.754;2022-07-30T14:20:17;30.60;56.10
32698;DHT22;19087;51.062;3.754;2022-07-30T14:22:44;30.50;55.30
32698;DHT22;19087;51.062;3.754;2022-07-30T14:25:10;30.50;55.20
32698;DHT22;19087;51.062;3.754;2022-07-30T14:27:36;30.20;55.30
32698;DHT22;19087;51.062;3.754;2022-07-30T14:30:04;30.50;55.10
32698;DHT22;19087;51.062;3.754;2022-07-30T14:32:30;30.10;55.00
32698;DHT22;19087;51.062;3.754;2022-07-30T14:34:56;30.30;55.20
32698;DHT22;19087;51.062;3.754;2022-07-30T14:37:25;30.80;54.90
32698;DHT22;19087;51.062;3.754;2022-07-30T14:39:51;30.90;54.70
32698;DHT22;19087;51.062;3.754;2022-07-30T14:42:17;30.80;54.30
32698;DHT22;19087;51.062;3.754;2022-07-30T14:44:46;30.90;54.20
32698;DHT22;19087;51.062;3.754;2022-07-30T14:47:12;30.90;54.40
32698;DHT22;19087;51.062;3.754;2022-07-30T14:49:39;30.80;54.90
32698;DHT22;19087;51.062;3.754;2022-07-30T14:52:25;30.70;54.00
32698;DHT22;19087;51.062;3.754;2022-07-30T14:54:51;30.30;55.60
32698;DHT22;19087;51.062;3.754;2022-07-30T14:57:19;30.60;54.50
32698;DHT22;19087;51.062;3.754;2022-07-30T14:59:52;30.40;54.60
32698;DHT22;19087;51.062;3.754;2022-07-30T15:02:19;30.20;55.60
32698;DHT22;19087;51.062;3.754;2022-07-30T15:04:46;29.60;56.30
32698;DHT22;19087;51.062;3.754;2022-07-30T15:07:12;29.40;56.80
32698;DHT22;19087;51.062;3.754;2022-07-30T15:09:39;29.40;56.60
32698;DHT22;19087;51.062;3.754;2022-07-30T15:12:06;29.50;56.70
32698;DHT22;19087;51.062;3.754;2022-07-30T15:14:36;30.00;56.20
32698;DHT22;19087;51.062;3.754;2022-07-30T15:17:03;29.90;55.80
32698;DHT22;19087;51.062;3.754;2022-07-30T15:19:30;29.90;56.10
32698;DHT22;19087;51.062;3.754;2022-07-30T15:22:01;30.10;55.80
32698;DHT22;19087;51.062;3.754;2022-07-30T15:24:28;30.10;55.80
32698;DHT22;19087;51.062;3.754;2022-07-30T15:26:54;30.10;55.90
32698;DHT22;19087;51.062;3.754;2022-07-30T15:29:20;30.10;56.10
32698;DHT22;19087;51.062;3.754;2022-07-30T15:31:49;30.30;56.00
32698;DHT22;19087;51.062;3.754;2022-07-30T15:34:14;30.60;55.70
32698;DHT22;19087;51.062;3.754;2022-07-30T15:36:40;30.80;55.50
32698;DHT22;19087;51.062;3.754;2022-07-30T15:39:08;30.40;55.50
32698;DHT22;19087;51.062;3.754;2022-07-30T15:41:36;30.20;55.90
32698;DHT22;19087;51.062;3.754;2022-07-30T15:44:02;30.40;55.80
32698;DHT22;19087;51.062;3.754;2022-07-30T15:46:28;30.70;55.60
32698;DHT22;19087;51.062;3.754;2022-07-30T15:48:54;30.30;55.80
32698;DHT22;19087;51.062;3.754;2022-07-30T15:51:20;29.90;56.60
32698;DHT22;19087;51.062;3.754;2022-07-30T15:53:46;29.50;57.20
32698;DHT22;19087;51.062;3.754;2022-07-30T15:56:12;29.60;57.50
32698;DHT22;19087;51.062;3.754;2022-07-30T15:58:40;29.60;57.60
32698;DHT22;19087;51.062;3.754;2022-07-30T16:01:07;29.50;57.70
32698;DHT22;19087;51.062;3.754;2022-07-30T16:03:33;29.30;58.50
32698;DHT22;19087;51.062;3.754;2022-07-30T16:05:59;29.10;58.40